Time;durP1;ratioP1;P1;durP2;ratioP2;P2;SDS_P1;SDS_P2;PMS_P1;PMS_P2;Temp;Humidity;BMP_temperature;BMP_pressure;BME280_temperature;BME280_humidity;BME280_pressure;Samples;Min_cycle;Max_cycle;Signal;HPM_P1;HPM_P2
2023/07/20 00:01:44;;;;;;;12.23;7.33;;;;;;;;;;5092689;28;20265;-75
2023/07/20 00:04:11;;;;;;;10.37;6.27;;;;;;;;;;5092214;28;20253;-76
2023/07/20 00:06:40;;;;;;;6.53;5.87;;;;;;;;;;5075767;28;20551;-76
2023/07/20 00:09:07;;;;;;;6.17;5.57;;;;;;;;;;5092918;28;20307;-75
2023/07/20 00:11:37;;;;;;;6.13;5.47;;;;;;;;;;5093303;28;20207;-76
2023/07/20 00:14:04;;;;;;;7.43;6.03;;;;;;;;;;5092115;28;20301;-75
2023/07/20 00:16:33;;;;;;;6.43;5.27;;;;;;;;;;5092666;28;20196;-75
2023/07/20 00:19:00;;;;;;;7.63;5.60;;;;;;;;;;5093096;28;20207;-76
2023/07/20 00:21:27;;;;;;;8.73;5.53;;;;;;;;;;5093436;28;20674;-76
2023/07/20 00:23:55;;;;;;;6.37;5.33;;;;;;;;;;5092968;28;20283;-76
2023/07/20 00:26:22;;;;;;;5.27;4.77;;;;;;;;;;5094087;28;20196;-76
2023/07/20 00:28:51;;;;;;;5.50;4.73;;;;;;;;;;5093145;28;20200;-76
2023/07/20 00:31:18;;;;;;;6.57;4.67;;;;;;;;;;5092967;28;20204;-76
2023/07/20 00:33:47;;;;;;;6.87;4.37;;;;;;;;;;5093371;28;20200;-76
2023/07/20 00:36:14;;;;;;;6.93;4.60;;;;;;;;;;5091260;28;20196;-76
2023/07/20 00:38:40;;;;;;;5.00;4.40;;;;;;;;;;5092624;28;20197;-76
2023/07/20 00:41:08;;;;;;;7.03;4.53;;;;;;;;;;5074739;28;20200;-76
2023/07/20 00:43:35;;;;;;;6.50;4.47;;;;;;;;;;5091288;28;20204;-76
2023/07/20 00:46:02;;;;;;;5.97;4.47;;;;;;;;;;5093036;28;20216;-76
2023/07/20 00:48:30;;;;;;;7.30;4.30;;;;;;;;;;5092273;28;20254;-75
2023/07/20 00:50:59;;;;;;;12.63;3.83;;;;;;;;;;5091558;28;20222;-76
2023/07/20 00:53:27;;;;;;;3.83;3.40;;;;;;;;;;5091529;28;20210;-75
2023/07/20 00:55:54;;;;;;;7.50;3.73;;;;;;;;;;5092465;28;20593;-76
2023/07/20 00:58:21;;;;;;;4.43;3.63;;;;;;;;;;5092821;28;20211;-75
2023/07/20 01:00:48;;;;;;;8.77;3.93;;;;;;;;;;5091246;28;20192;-75
2023/07/20 01:03:15;;;;;;;4.67;3.90;;;;;;;;;;5091032;28;20269;-76
2023/07/20 01:05:45;;;;;;;7.67;3.30;;;;;;;;;;5092356;28;20200;-75
2023/07/20 01:08:22;;;;;;;7.20;3.23;;;;;;;;;;5092863;28;20204;-75
2023/07/20 01:10:53;;;;;;;5.78;3.20;;;;;;;;;;5074457;28;20670;-76
2023/07/20 01:13:21;;;;;;;7.35;3.67;;;;;;;;;;5092272;28;20720;-75
2023/07/20 01:15:51;;;;;;;5.83;4.17;;;;;;;;;;5092102;28;20277;-75
2023/07/20 01:18:19;;;;;;;8.43;4.13;;;;;;;;;;5092306;28;20199;-75
2023/07/20 01:20:46;;;;;;;10.57;4.67;;;;;;;;;;5092123;28;20200;-75
2023/07/20 01:23:27;;;;;;;8.97;3.97;;;;;;;;;;5091566;28;20196;-75
2023/07/20 01:26:13;;;;;;;6.93;4.43;;;;;;;;;;5092805;28;20200;-75
2023/07/20 01:29:08;;;;;;;6.77;3.70;;;;;;;;;;5091888;28;20196;-75
2023/07/20 01:31:38;;;;;;;4.90;4.00;;;;;;;;;;5092519;28;20597;-75
2023/07/20 01:34:05;;;;;;;7.93;3.73;;;;;;;;;;5091826;28;20207;-75
2023/07/20 01:36:34;;;;;;;9.20;4.50;;;;;;;;;;5092156;28;20210;-76
2023/07/20 01:39:02;;;;;;;5.50;3.70;;;;;;;;;;5091902;28;20654;-75
2023/07/20 01:41:29;;;;;;;6.28;3.72;;;;;;;;;;5090400;28;20192;-76
2023/07/20 01:43:59;;;;;;;10.20;4.27;;;;;;;;;;5090892;28;20198;-75
2023/07/20 01:46:26;;;;;;;9.33;3.73;;;;;;;;;;5091788;28;20231;-76
2023/07/20 01:48:55;;;;;;;9.17;4.73;;;;;;;;;;5091865;28;20662;-76
2023/07/20 01:51:22;;;;;;;11.33;4.00;;;;;;;;;;5105179;28;20234;-76
2023/07/20 01:53:49;;;;;;;4.53;3.23;;;;;;;;;;5111950;28;20202;-76
2023/07/20 01:56:16;;;;;;;7.50;4.17;;;;;;;;;;5093311;28;20696;-75
2023/07/20 01:58:43;;;;;;;5.27;2.83;;;;;;;;;;5077210;28;20214;-76
2023/07/20 02:01:10;;;;;;;10.07;3.67;;;;;;;;;;5093951;28;20204;-76
2023/07/20 02:03:37;;;;;;;7.03;3.23;;;;;;;;;;5093988;28;20203;-76
2023/07/20 02:06:06;;;;;;;8.98;4.10;;;;;;;;;;5093541;28;20199;-75
2023/07/20 02:08:33;;;;;;;6.93;3.83;;;;;;;;;;5111868;28;20669;-76
2023/07/20 02:11:00;;;;;;;10.50;3.70;;;;;;;;;;5094322;28;20191;-75
2023/07/20 02:13:27;;;;;;;6.13;3.97;;;;;;;;;;5077542;28;20199;-75
2023/07/20 02:15:54;;;;;;;10.87;4.00;;;;;;;;;;5093524;28;20231;-75
2023/07/20 02:18:21;;;;;;;9.77;4.53;;;;;;;;;;5111913;28;20195;-75
2023/07/20 02:20:48;;;;;;;7.73;3.50;;;;;;;;;;5093750;28;20195;-75
2023/07/20 02:23:17;;;;;;;6.50;3.73;;;;;;;;;;5111726;28;20658;-75
2023/07/20 02:25:44;;;;;;;10.27;3.20;;;;;;;;;;5111854;28;20199;-75
2023/07/20 02:28:14;;;;;;;5.37;3.30;;;;;;;;;;5111879;28;20638;-76
2023/07/20 02:30:41;;;;;;;5.87;3.60;;;;;;;;;;5111714;28;20191;-75
2023/07/20 02:33:08;;;;;;;4.43;3.43;;;;;;;;;;5111823;28;20668;-75
2023/07/20 02:35:35;;;;;;;5.35;3.63;;;;;;;;;;5110073;28;20566;-75
2023/07/20 02:38:03;;;;;;;7.07;3.50;;;;;;;;;;5076887;28;20200;-75
2023/07/20 02:40:31;;;;;;;5.27;3.97;;;;;;;;;;5096706;28;20196;-75
2023/07/20 02:42:58;;;;;;;6.67;3.53;;;;;;;;;;5097847;28;20236;-75
2023/07/20 02:45:25;;;;;;;7.27;3.50;;;;;;;;;;5097866;28;20210;-75
2023/07/20 02:47:52;;;;;;;7.73;3.23;;;;;;;;;;5097068;28;20665;-75
2023/07/20 02:50:19;;;;;;;6.57;3.33;;;;;;;;;;5097438;28;20222;-75
2023/07/20 02:52:46;;;;;;;13.03;3.43;;;;;;;;;;5097176;28;20210;-75
2023/07/20 02:55:13;;;;;;;8.60;3.83;;;;;;;;;;5115376;28;20211;-75
2023/07/20 02:57:41;;;;;;;7.77;3.90;;;;;;;;;;5115220;28;20202;-74
2023/07/20 03:00:09;;;;;;;6.50;4.03;;;;;;;;;;5097026;28;20195;-75
2023/07/20 03:02:37;;;;;;;6.10;3.97;;;;;;;;;;5097053;28;20203;-75
2023/07/20 03:05:07;;;;;;;14.20;4.93;;;;;;;;;;5096984;28;20203;-75
2023/07/20 03:07:34;;;;;;;7.93;3.83;;;;;;;;;;5097666;28;20203;-75
2023/07/20 03:10:01;;;;;;;8.43;4.27;;;;;;;;;;5115374;28;20191;-75
2023/07/20 03:12:29;;;;;;;7.83;3.37;;;;;;;;;;5115106;28;20195;-76
2023/07/20 03:14:58;;;;;;;5.00;3.60;;;;;;;;;;5096649;28;20219;-76
2023/07/20 03:17:24;;;;;;;5.13;3.47;;;;;;;;;;5080389;28;20629;-76
2023/07/20 03:19:51;;;;;;;9.00;4.17;;;;;;;;;;5112252;28;20200;-76
2023/07/20 03:22:18;;;;;;;9.13;3.87;;;;;;;;;;5114749;28;20199;-76
2023/07/20 03:24:45;;;;;;;6.73;3.43;;;;;;;;;;5114404;28;20202;-76
2023/07/20 03:27:11;;;;;;;4.67;3.40;;;;;;;;;;5113208;28;20206;-76
2023/07/20 03:29:38;;;;;;;5.30;3.60;;;;;;;;;;5113916;28;20203;-76
2023/07/20 03:32:07;;;;;;;5.60;3.27;;;;;;;;;;5114272;28;20332;-75
2023/07/20 03:34:34;;;;;;;7.90;3.40;;;;;;;;;;5110383;28;20228;-76
2023/07/20 03:37:00;;;;;;;8.00;3.93;;;;;;;;;;5093885;28;20220;-75
2023/07/20 03:39:28;;;;;;;5.33;3.30;;;;;;;;;;5083079;28;20198;-76
2023/07/20 03:41:55;;;;;;;7.37;3.47;;;;;;;;;;5096900;28;20618;-76
2023/07/20 03:44:22;;;;;;;9.20;3.30;;;;;;;;;;5114965;28;20673;-76
2023/07/20 03:46:48;;;;;;;12.20;4.60;;;;;;;;;;5114632;28;20201;-76
2023/07/20 03:49:17;;;;;;;9.87;3.33;;;;;;;;;;5114648;28;20206;-76
2023/07/20 03:51:44;;;;;;;7.67;4.10;;;;;;;;;;5114240;28;20306;-76
2023/07/20 03:54:11;;;;;;;6.60;3.67;;;;;;;;;;5114061;28;20294;-76
2023/07/20 03:56:38;;;;;;;4.33;3.37;;;;;;;;;;5114046;28;20215;-76
2023/07/20 03:59:06;;;;;;;4.70;3.50;;;;;;;;;;5114104;28;20666;-76
2023/07/20 04:01:36;;;;;;;6.30;4.00;;;;;;;;;;5114234;28;20188;-76
2023/07/20 04:04:05;;;;;;;6.47;3.93;;;;;;;;;;5096949;28;20203;-75
2023/07/20 04:06:33;;;;;;;7.43;4.10;;;;;;;;;;5093878;28;20662;-76
2023/07/20 04:09:00;;;;;;;8.67;4.10;;;;;;;;;;5094423;28;20210;-76
2023/07/20 04:11:27;;;;;;;4.83;3.50;;;;;;;;;;5093323;28;20203;-75
2023/07/20 04:13:54;;;;;;;8.13;4.10;;;;;;;;;;5093256;28;20228;-76
2023/07/20 04:16:20;;;;;;;10.73;4.73;;;;;;;;;;5094159;28;20216;-76
2023/07/20 04:18:48;;;;;;;5.87;4.60;;;;;;;;;;5094339;28;20258;-75
2023/07/20 04:21:14;;;;;;;8.73;4.40;;;;;;;;;;5093131;28;20283;-76
2023/07/20 04:23:43;;;;;;;5.70;4.63;;;;;;;;;;5093661;28;20200;-76
2023/07/20 04:26:09;;;;;;;7.37;4.37;;;;;;;;;;5093302;28;20204;-76
2023/07/20 04:28:36;;;;;;;4.90;4.07;;;;;;;;;;5093004;28;20701;-76
2023/07/20 04:31:13;;;;;;;11.30;4.40;;;;;;;;;;5093097;28;20200;-76
2023/07/20 04:33:40;;;;;;;5.17;4.57;;;;;;;;;;5093221;28;20249;-76
2023/07/20 04:36:07;;;;;;;10.03;4.50;;;;;;;;;;5093266;28;20223;-76
2023/07/20 04:38:34;;;;;;;7.33;4.80;;;;;;;;;;5093287;28;20201;-76
2023/07/20 04:41:02;;;;;;;6.73;4.30;;;;;;;;;;5095730;28;20191;-76
2023/07/20 04:43:30;;;;;;;14.80;4.63;;;;;;;;;;5103099;28;20199;-76
2023/07/20 04:45:58;;;;;;;9.23;4.60;;;;;;;;;;5112486;28;20256;-76
2023/07/20 04:48:25;;;;;;;6.30;4.73;;;;;;;;;;5114170;28;20271;-76
2023/07/20 04:50:51;;;;;;;7.03;4.90;;;;;;;;;;5113336;28;20226;-76
2023/07/20 04:53:18;;;;;;;7.53;4.60;;;;;;;;;;5113187;28;20203;-76
2023/07/20 04:55:50;;;;;;;9.37;5.00;;;;;;;;;;5112818;28;20227;-76
2023/07/20 04:58:19;;;;;;;9.70;4.80;;;;;;;;;;5113224;28;20259;-76
2023/07/20 05:00:46;;;;;;;8.37;5.00;;;;;;;;;;5113613;28;20663;-76
2023/07/20 05:03:12;;;;;;;6.30;4.53;;;;;;;;;;5112634;28;20538;-76
2023/07/20 05:05:39;;;;;;;6.00;4.53;;;;;;;;;;5112667;28;20199;-76
2023/07/20 05:08:06;;;;;;;6.17;5.57;;;;;;;;;;5112944;28;20192;-76
2023/07/20 05:10:33;;;;;;;7.10;4.90;;;;;;;;;;5112796;28;20260;-76
2023/07/20 05:13:00;;;;;;;5.33;4.87;;;;;;;;;;5112552;28;20240;-76
2023/07/20 05:15:28;;;;;;;7.33;5.17;;;;;;;;;;5113089;28;20199;-76
2023/07/20 05:17:55;;;;;;;9.57;5.37;;;;;;;;;;5102159;28;20646;-76
2023/07/20 05:20:21;;;;;;;10.10;5.50;;;;;;;;;;5092387;28;20203;-76
2023/07/20 05:22:49;;;;;;;8.37;5.53;;;;;;;;;;5107026;28;20228;-76
2023/07/20 05:25:18;;;;;;;10.37;4.93;;;;;;;;;;5091994;28;20224;-76
2023/07/20 05:27:45;;;;;;;8.13;4.83;;;;;;;;;;5110386;28;20192;-76
2023/07/20 05:30:12;;;;;;;4.90;4.30;;;;;;;;;;5112472;28;20195;-76
2023/07/20 05:32:40;;;;;;;6.23;4.37;;;;;;;;;;5111418;28;20583;-76
2023/07/20 05:35:11;;;;;;;7.07;4.43;;;;;;;;;;5110893;28;20195;-76
2023/07/20 05:37:38;;;;;;;6.80;4.40;;;;;;;;;;5107912;28;20601;-76
2023/07/20 05:40:06;;;;;;;7.37;3.80;;;;;;;;;;5092159;28;20200;-76
2023/07/20 05:42:32;;;;;;;16.33;5.40;;;;;;;;;;5091923;28;20227;-76
2023/07/20 05:44:59;;;;;;;5.40;4.90;;;;;;;;;;5106408;28;20183;-76
2023/07/20 05:47:26;;;;;;;5.30;4.73;;;;;;;;;;5090912;28;20199;-76
2023/07/20 05:49:54;;;;;;;14.43;5.20;;;;;;;;;;5099612;28;20673;-76
2023/07/20 05:52:21;;;;;;;9.60;4.73;;;;;;;;;;5101872;28;20668;-77
2023/07/20 05:54:48;;;;;;;8.23;4.03;;;;;;;;;;5099341;28;20689;-76
2023/07/20 05:57:14;;;;;;;7.80;5.63;;;;;;;;;;5096966;28;20219;-76
2023/07/20 05:59:44;;;;;;;7.50;4.80;;;;;;;;;;5111986;28;20203;-76
2023/07/20 06:02:10;;;;;;;11.60;4.70;;;;;;;;;;5110433;28;20196;-76
2023/07/20 06:04:37;;;;;;;7.03;4.73;;;;;;;;;;5102898;28;20226;-76
2023/07/20 06:07:07;;;;;;;7.10;4.87;;;;;;;;;;5111386;28;20221;-76
2023/07/20 06:09:34;;;;;;;10.83;6.47;;;;;;;;;;5112019;28;20282;-76
2023/07/20 06:12:01;;;;;;;12.55;5.28;;;;;;;;;;5109203;28;20199;-77
2023/07/20 06:14:28;;;;;;;10.63;5.65;;;;;;;;;;5093036;28;20253;-76
2023/07/20 06:16:54;;;;;;;5.13;4.47;;;;;;;;;;5110781;28;20232;-76
2023/07/20 06:19:22;;;;;;;9.60;5.70;;;;;;;;;;5106591;28;20201;-76
2023/07/20 06:21:49;;;;;;;5.28;4.78;;;;;;;;;;5101162;28;20257;-76
2023/07/20 06:24:17;;;;;;;6.93;5.40;;;;;;;;;;5112506;28;20240;-76
2023/07/20 06:26:44;;;;;;;9.35;5.57;;;;;;;;;;5112581;28;20274;-76
2023/07/20 06:29:11;;;;;;;7.05;4.72;;;;;;;;;;5094989;28;20203;-77
2023/07/20 06:31:38;;;;;;;5.25;4.68;;;;;;;;;;5095535;28;20207;-76
2023/07/20 06:34:05;;;;;;;7.00;4.38;;;;;;;;;;5106540;28;20192;-76
2023/07/20 06:36:31;;;;;;;8.25;4.85;;;;;;;;;;5115498;28;20212;-76
2023/07/20 06:38:58;;;;;;;5.38;4.75;;;;;;;;;;5112983;28;20211;-77
2023/07/20 06:41:26;;;;;;;9.65;5.28;;;;;;;;;;5095185;28;20198;-76
2023/07/20 06:43:57;;;;;;;8.25;5.03;;;;;;;;;;5102619;28;20195;-76
2023/07/20 06:46:25;;;;;;;5.38;4.60;;;;;;;;;;5112917;28;20204;-76
2023/07/20 06:48:51;;;;;;;6.75;5.45;;;;;;;;;;5100907;28;20606;-76
2023/07/20 06:51:19;;;;;;;10.70;6.63;;;;;;;;;;5114792;28;20293;-76
2023/07/20 06:53:46;;;;;;;8.35;4.93;;;;;;;;;;5102871;28;20197;-76
2023/07/20 06:56:13;;;;;;;5.25;4.40;;;;;;;;;;5110662;28;20211;-77
2023/07/20 06:58:41;;;;;;;5.55;5.00;;;;;;;;;;5115492;28;20632;-76
2023/07/20 07:01:08;;;;;;;7.40;4.40;;;;;;;;;;5105845;28;20278;-77
2023/07/20 07:03:36;;;;;;;5.65;4.72;;;;;;;;;;5115440;28;20564;-76
2023/07/20 07:06:03;;;;;;;7.32;4.40;;;;;;;;;;5115264;28;20200;-76
2023/07/20 07:08:30;;;;;;;6.43;5.30;;;;;;;;;;5115295;28;20203;-76
2023/07/20 07:10:57;;;;;;;5.95;5.18;;;;;;;;;;5115018;28;20199;-76
2023/07/20 07:13:25;;;;;;;5.40;4.88;;;;;;;;;;5115174;28;20206;-76
2023/07/20 07:15:53;;;;;;;8.05;4.57;;;;;;;;;;5115011;28;20199;-76
2023/07/20 07:18:20;;;;;;;10.25;5.32;;;;;;;;;;5102326;28;20200;-76
2023/07/20 07:20:53;;;;;;;6.93;5.53;;;;;;;;;;5093843;28;20196;-77
2023/07/20 07:23:19;;;;;;;8.23;5.20;;;;;;;;;;5101612;28;20195;-76
2023/07/20 07:25:47;;;;;;;4.93;4.32;;;;;;;;;;5093834;28;20207;-76
2023/07/20 07:28:14;;;;;;;11.55;5.38;;;;;;;;;;5098210;28;20202;-76
2023/07/20 07:30:40;;;;;;;5.40;4.88;;;;;;;;;;5095826;28;20279;-76
2023/07/20 07:33:10;;;;;;;5.82;5.05;;;;;;;;;;5093453;28;20609;-76
2023/07/20 07:35:37;;;;;;;7.22;4.75;;;;;;;;;;5101335;28;20187;-76
2023/07/20 07:38:03;;;;;;;6.20;5.60;;;;;;;;;;5104568;28;20694;-76
2023/07/20 07:40:30;;;;;;;5.35;4.95;;;;;;;;;;5109427;28;20266;-76
2023/07/20 07:42:57;;;;;;;8.10;5.22;;;;;;;;;;5093303;28;20201;-77
2023/07/20 07:45:25;;;;;;;5.38;4.88;;;;;;;;;;5113617;28;20196;-76
2023/07/20 07:47:52;;;;;;;9.00;5.03;;;;;;;;;;5098001;28;20192;-76
2023/07/20 07:50:21;;;;;;;8.82;5.97;;;;;;;;;;5111534;28;20231;-77
2023/07/20 07:52:47;;;;;;;12.30;6.90;;;;;;;;;;5104616;28;20199;-76
2023/07/20 07:55:16;;;;;;;5.55;5.05;;;;;;;;;;5113913;28;20203;-77
2023/07/20 07:57:43;;;;;;;7.65;5.38;;;;;;;;;;5112773;28;20593;-77
2023/07/20 08:00:14;;;;;;;8.07;5.15;;;;;;;;;;5113271;28;20192;-76
2023/07/20 08:02:42;;;;;;;10.68;5.45;;;;;;;;;;5104813;28;20196;-77
2023/07/20 08:05:09;;;;;;;7.30;5.93;;;;;;;;;;5101185;28;20250;-76
2023/07/20 08:07:37;;;;;;;7.57;4.95;;;;;;;;;;5093411;28;20204;-77
2023/07/20 08:10:04;;;;;;;6.68;4.57;;;;;;;;;;5094095;28;20654;-76
2023/07/20 08:12:31;;;;;;;6.85;4.90;;;;;;;;;;5107467;28;20188;-76
2023/07/20 08:14:58;;;;;;;7.63;5.63;;;;;;;;;;5093370;28;20254;-76
2023/07/20 08:17:25;;;;;;;5.30;4.80;;;;;;;;;;5108631;28;20567;-76
2023/07/20 08:19:52;;;;;;;9.30;5.78;;;;;;;;;;5092410;28;20188;-76
2023/07/20 08:22:19;;;;;;;6.78;5.50;;;;;;;;;;5109994;28;20199;-77
2023/07/20 08:24:47;;;;;;;7.38;5.55;;;;;;;;;;5100012;28;20245;-77
2023/07/20 08:27:14;;;;;;;7.10;5.82;;;;;;;;;;5095613;28;20187;-77
2023/07/20 08:29:40;;;;;;;5.75;4.78;;;;;;;;;;5112970;28;20191;-77
2023/07/20 08:32:08;;;;;;;7.82;5.22;;;;;;;;;;5098863;28;20694;-77
2023/07/20 08:34:35;;;;;;;9.40;5.82;;;;;;;;;;5101032;28;20195;-77
2023/07/20 08:37:01;;;;;;;6.30;5.63;;;;;;;;;;5112443;28;20664;-77
2023/07/20 08:39:28;;;;;;;9.13;5.65;;;;;;;;;;5112186;28;20619;-77
2023/07/20 08:41:57;;;;;;;7.53;5.53;;;;;;;;;;5112691;28;20206;-77
2023/07/20 08:44:26;;;;;;;6.65;5.25;;;;;;;;;;5112900;28;20199;-78
2023/07/20 08:46:53;;;;;;;6.75;5.40;;;;;;;;;;5113996;28;20199;-76
2023/07/20 08:49:20;;;;;;;9.10;5.75;;;;;;;;;;5101576;28;20200;-76
2023/07/20 08:51:47;;;;;;;5.72;4.78;;;;;;;;;;5112649;28;20226;-77
2023/07/20 08:54:14;;;;;;;7.00;4.85;;;;;;;;;;5104100;28;20210;-77
2023/07/20 08:56:42;;;;;;;5.20;4.80;;;;;;;;;;5112543;28;20685;-77
2023/07/20 08:59:10;;;;;;;11.85;4.90;;;;;;;;;;5095618;28;20200;-77
2023/07/20 09:01:37;;;;;;;5.72;5.20;;;;;;;;;;5092619;28;20736;-76
2023/07/20 09:04:04;;;;;;;4.85;4.45;;;;;;;;;;5104570;28;20202;-76
2023/07/20 09:06:31;;;;;;;10.25;5.28;;;;;;;;;;5113597;28;20206;-76
2023/07/20 09:08:58;;;;;;;7.05;5.10;;;;;;;;;;5113021;28;20227;-77
2023/07/20 09:11:24;;;;;;;5.30;4.80;;;;;;;;;;5113216;28;20611;-77
2023/07/20 09:14:03;;;;;;;4.75;4.45;;;;;;;;;;5113754;28;20203;-77
2023/07/20 09:16:32;;;;;;;7.85;4.68;;;;;;;;;;5112530;28;20691;-76
2023/07/20 09:18:59;;;;;;;6.13;5.32;;;;;;;;;;5101114;28;20256;-76
2023/07/20 09:21:30;;;;;;;6.25;5.65;;;;;;;;;;5112649;28;20202;-76
2023/07/20 09:23:57;;;;;;;6.82;5.47;;;;;;;;;;5098484;28;20200;-77
2023/07/20 09:26:24;;;;;;;6.93;4.68;;;;;;;;;;5092550;28;20199;-77
2023/07/20 09:28:54;;;;;;;7.25;5.25;;;;;;;;;;5108499;28;20195;-77
2023/07/20 09:31:21;;;;;;;6.35;5.25;;;;;;;;;;5106430;28;20191;-76
2023/07/20 09:33:50;;;;;;;5.85;5.28;;;;;;;;;;5094431;28;20192;-77
2023/07/20 09:36:17;;;;;;;6.70;5.70;;;;;;;;;;5103461;28;20636;-77
2023/07/20 09:38:44;;;;;;;6.38;5.25;;;;;;;;;;5112586;28;20226;-77
2023/07/20 09:41:14;;;;;;;7.22;5.22;;;;;;;;;;5102018;28;20195;-77
2023/07/20 09:43:41;;;;;;;5.20;4.70;;;;;;;;;;5112017;28;20200;-77
2023/07/20 09:46:07;;;;;;;5.30;4.80;;;;;;;;;;5095790;28;20254;-77
2023/07/20 09:48:34;;;;;;;5.50;5.00;;;;;;;;;;5111374;28;20628;-77
2023/07/20 09:51:02;;;;;;;5.97;4.88;;;;;;;;;;5112366;28;20224;-77
2023/07/20 09:53:29;;;;;;;6.13;5.10;;;;;;;;;;5100824;28;20713;-77
2023/07/20 09:55:56;;;;;;;7.65;5.43;;;;;;;;;;5092200;28;20196;-77
2023/07/20 09:58:24;;;;;;;7.82;5.28;;;;;;;;;;5092523;28;20632;-76
2023/07/20 10:00:52;;;;;;;6.22;5.40;;;;;;;;;;5092737;28;20196;-76
2023/07/20 10:03:20;;;;;;;11.35;5.05;;;;;;;;;;5090262;28;20192;-77
2023/07/20 10:05:50;;;;;;;9.63;5.05;;;;;;;;;;5091180;28;20546;-77
2023/07/20 10:08:20;;;;;;;5.43;4.82;;;;;;;;;;5092212;28;20207;-77
2023/07/20 10:10:48;;;;;;;5.35;4.75;;;;;;;;;;5106223;28;20286;-76
2023/07/20 10:13:19;;;;;;;6.07;4.82;;;;;;;;;;5110749;28;20282;-77
2023/07/20 10:15:48;;;;;;;5.20;4.47;;;;;;;;;;5102455;28;20191;-77
2023/07/20 10:18:25;;;;;;;6.95;4.70;;;;;;;;;;5111283;28;20280;-78
2023/07/20 10:20:52;;;;;;;5.53;4.63;;;;;;;;;;5105775;28;20192;-77
2023/07/20 10:23:21;;;;;;;8.48;4.30;;;;;;;;;;5090858;28;20201;-76
2023/07/20 10:25:48;;;;;;;4.90;4.10;;;;;;;;;;5090482;28;20682;-77
2023/07/20 10:28:15;;;;;;;7.28;4.65;;;;;;;;;;5091205;28;20196;-76
2023/07/20 10:30:43;;;;;;;7.07;5.05;;;;;;;;;;5090438;28;20250;-76
2023/07/20 10:33:10;;;;;;;6.03;4.63;;;;;;;;;;5103884;28;20192;-77
2023/07/20 10:35:52;;;;;;;5.55;4.40;;;;;;;;;;5111996;28;20195;-77
2023/07/20 10:38:18;;;;;;;6.95;5.05;;;;;;;;;;5097891;28;20212;-77
2023/07/20 10:40:55;;;;;;;7.65;4.57;;;;;;;;;;5091659;28;20566;-77
2023/07/20 10:43:21;;;;;;;5.15;4.32;;;;;;;;;;5091094;28;20204;-77
2023/07/20 10:45:52;;;;;;;5.78;4.45;;;;;;;;;;5095855;28;20200;-76
2023/07/20 10:48:20;;;;;;;5.38;4.25;;;;;;;;;;5090952;28;20204;-77
2023/07/20 10:51:11;;;;;;;8.02;4.57;;;;;;;;;;5091966;28;20220;-77
2023/07/20 10:53:38;;;;;;;5.32;4.32;;;;;;;;;;5091202;28;20206;-77
2023/07/20 10:56:13;;;;;;;5.00;4.55;;;;;;;;;;5091206;28;20200;-76
2023/07/20 10:58:40;;;;;;;8.13;4.40;;;;;;;;;;5090901;28;20236;-77
2023/07/20 11:01:07;;;;;;;7.35;4.97;;;;;;;;;;5093774;28;20200;-76
2023/07/20 11:03:35;;;;;;;5.07;4.57;;;;;;;;;;5095226;28;20202;-76
2023/07/20 11:06:38;;;;;;;7.53;4.95;;;;;;;;;;5094808;28;20196;-77
2023/07/20 11:09:14;;;;;;;7.68;3.90;;;;;;;;;;5094481;28;20245;-77
2023/07/20 11:11:44;;;;;;;5.30;3.60;;;;;;;;;;5095042;28;20206;-77
2023/07/20 11:14:12;;;;;;;5.28;3.67;;;;;;;;;;5095133;28;20329;-77
2023/07/20 11:16:41;;;;;;;6.10;4.53;;;;;;;;;;5094496;28;20204;-77
2023/07/20 11:19:16;;;;;;;5.95;3.65;;;;;;;;;;5109872;28;20219;-77
2023/07/20 11:21:44;;;;;;;4.57;3.42;;;;;;;;;;5094447;28;20228;-77
2023/07/20 11:24:13;;;;;;;5.72;3.20;;;;;;;;;;5099110;28;20248;-77
2023/07/20 11:26:48;;;;;;;3.83;2.72;;;;;;;;;;5114093;28;20187;-77
2023/07/20 11:29:17;;;;;;;4.40;3.42;;;;;;;;;;5113906;28;20614;-77
2023/07/20 11:31:45;;;;;;;5.43;3.70;;;;;;;;;;5096335;28;20241;-77
2023/07/20 11:34:13;;;;;;;9.60;4.43;;;;;;;;;;5094638;28;20196;-77
2023/07/20 11:36:42;;;;;;;5.38;3.90;;;;;;;;;;5094046;28;20257;-77
2023/07/20 11:39:10;;;;;;;6.65;3.97;;;;;;;;;;5093950;28;20251;-77
2023/07/20 11:41:37;;;;;;;6.43;4.03;;;;;;;;;;5094443;28;20273;-77
2023/07/20 11:44:06;;;;;;;3.50;3.13;;;;;;;;;;5094638;28;20196;-77
2023/07/20 11:46:33;;;;;;;3.95;3.20;;;;;;;;;;5093112;28;20261;-77
2023/07/20 11:49:00;;;;;;;10.18;3.40;;;;;;;;;;5093700;28;20681;-77
2023/07/20 11:51:29;;;;;;;5.55;3.65;;;;;;;;;;5093747;28;20227;-77
2023/07/20 11:53:57;;;;;;;4.20;3.13;;;;;;;;;;5094692;28;20197;-77
2023/07/20 11:56:25;;;;;;;6.20;3.78;;;;;;;;;;5094011;28;20196;-76
2023/07/20 11:58:51;;;;;;;4.72;2.85;;;;;;;;;;5093638;28;20220;-77
2023/07/20 12:01:20;;;;;;;8.70;3.05;;;;;;;;;;5094251;28;20203;-77
2023/07/20 12:03:49;;;;;;;7.18;3.78;;;;;;;;;;5094281;28;20637;-77
2023/07/20 12:06:15;;;;;;;3.78;3.28;;;;;;;;;;5093627;28;20196;-77
2023/07/20 12:08:43;;;;;;;3.70;3.30;;;;;;;;;;5093344;28;20200;-77
2023/07/20 12:11:10;;;;;;;4.47;2.85;;;;;;;;;;5093385;28;20192;-77
2023/07/20 12:13:38;;;;;;;4.03;3.08;;;;;;;;;;5093409;28;20573;-77
2023/07/20 12:16:10;;;;;;;4.15;2.63;;;;;;;;;;5093297;28;20227;-77
2023/07/20 12:18:39;;;;;;;4.38;2.78;;;;;;;;;;5091774;28;20216;-77
2023/07/20 12:21:07;;;;;;;3.55;2.95;;;;;;;;;;5101028;28;20562;-77
2023/07/20 12:23:36;;;;;;;3.25;2.63;;;;;;;;;;5095836;28;20249;-77
2023/07/20 12:26:05;;;;;;;4.15;2.80;;;;;;;;;;5112777;28;20694;-77
2023/07/20 12:28:32;;;;;;;6.68;3.03;;;;;;;;;;5098136;28;20204;-76
2023/07/20 12:30:59;;;;;;;3.97;2.72;;;;;;;;;;5103030;28;20195;-77
2023/07/20 12:33:26;;;;;;;5.03;3.22;;;;;;;;;;5103347;28;20238;-77
2023/07/20 12:35:55;;;;;;;6.70;3.25;;;;;;;;;;5113524;28;20207;-77
2023/07/20 12:38:25;;;;;;;5.22;3.35;;;;;;;;;;5095341;28;20243;-76
2023/07/20 12:40:51;;;;;;;8.98;4.07;;;;;;;;;;5098641;28;20593;-77
2023/07/20 12:43:18;;;;;;;3.88;3.05;;;;;;;;;;5093165;28;20196;-77
2023/07/20 12:45:46;;;;;;;5.32;3.17;;;;;;;;;;5099843;28;20204;-77
2023/07/20 12:48:12;;;;;;;6.50;3.10;;;;;;;;;;5091834;28;20666;-76
2023/07/20 12:50:39;;;;;;;7.00;3.83;;;;;;;;;;5101628;28;20215;-77
2023/07/20 12:53:07;;;;;;;5.55;3.63;;;;;;;;;;5099769;28;20252;-76
2023/07/20 12:55:34;;;;;;;3.25;2.90;;;;;;;;;;5092668;28;20200;-77
2023/07/20 12:58:01;;;;;;;4.20;2.92;;;;;;;;;;5091211;28;20216;-77
2023/07/20 13:00:28;;;;;;;4.55;2.30;;;;;;;;;;5106432;28;20710;-77
2023/07/20 13:02:55;;;;;;;5.78;3.38;;;;;;;;;;5112220;28;20583;-77
2023/07/20 13:05:21;;;;;;;3.88;2.70;;;;;;;;;;5112178;28;20196;-77
2023/07/20 13:07:48;;;;;;;6.68;2.85;;;;;;;;;;5097004;28;20206;-76
2023/07/20 13:10:19;;;;;;;3.00;2.47;;;;;;;;;;5091433;28;20196;-76
2023/07/20 13:12:45;;;;;;;5.47;3.30;;;;;;;;;;5106091;28;20198;-77
2023/07/20 13:15:12;;;;;;;4.35;2.80;;;;;;;;;;5094749;28;20191;-76
2023/07/20 13:17:40;;;;;;;2.83;2.63;;;;;;;;;;5112274;28;20195;-77
2023/07/20 13:20:09;;;;;;;6.10;2.55;;;;;;;;;;5096655;28;20223;-77
2023/07/20 13:22:36;;;;;;;4.50;2.80;;;;;;;;;;5091297;28;20203;-77
2023/07/20 13:25:03;;;;;;;3.60;2.17;;;;;;;;;;5105220;28;20249;-77
2023/07/20 13:27:32;;;;;;;6.13;2.85;;;;;;;;;;5102775;28;20196;-77
2023/07/20 13:29:59;;;;;;;3.08;2.47;;;;;;;;;;5112447;28;20196;-76
2023/07/20 13:32:27;;;;;;;3.20;2.63;;;;;;;;;;5112619;28;20195;-76
2023/07/20 13:34:54;;;;;;;3.40;2.50;;;;;;;;;;5110807;28;20196;-77
2023/07/20 13:37:21;;;;;;;3.90;2.55;;;;;;;;;;5111099;28;20207;-77
2023/07/20 13:39:50;;;;;;;5.07;2.65;;;;;;;;;;5112287;28;20223;-76
2023/07/20 13:42:17;;;;;;;2.80;2.55;;;;;;;;;;5101813;28;20615;-77
2023/07/20 13:44:46;;;;;;;5.28;2.95;;;;;;;;;;5097701;28;20207;-77
2023/07/20 13:47:13;;;;;;;10.57;3.05;;;;;;;;;;5091079;28;20196;-77
2023/07/20 13:49:39;;;;;;;6.53;4.05;;;;;;;;;;5104002;28;20199;-77
2023/07/20 13:52:09;;;;;;;8.77;3.67;;;;;;;;;;5111686;28;20223;-76
2023/07/20 13:54:35;;;;;;;4.47;3.20;;;;;;;;;;5111532;28;20218;-77
2023/07/20 13:57:02;;;;;;;5.43;3.40;;;;;;;;;;5111868;28;20665;-77
2023/07/20 13:59:29;;;;;;;5.35;3.33;;;;;;;;;;5111093;28;20226;-77
2023/07/20 14:01:57;;;;;;;4.55;3.60;;;;;;;;;;5112565;28;20199;-76
2023/07/20 14:04:24;;;;;;;4.30;3.90;;;;;;;;;;5112122;28;20260;-76
2023/07/20 14:06:51;;;;;;;4.57;2.97;;;;;;;;;;5094651;28;20406;-75
2023/07/20 14:09:18;;;;;;;4.53;3.03;;;;;;;;;;5112086;28;20704;-75
2023/07/20 14:11:45;;;;;;;7.60;3.35;;;;;;;;;;5093900;28;20195;-75
2023/07/20 14:14:13;;;;;;;4.40;3.20;;;;;;;;;;5112180;28;20203;-75
2023/07/20 14:16:40;;;;;;;4.50;3.33;;;;;;;;;;5077129;28;20681;-75
2023/07/20 14:19:08;;;;;;;3.88;3.58;;;;;;;;;;5111924;28;20223;-75
2023/07/20 14:21:35;;;;;;;7.45;3.83;;;;;;;;;;5111924;28;20202;-75
2023/07/20 14:24:02;;;;;;;4.70;3.90;;;;;;;;;;5112109;28;20210;-75
2023/07/20 14:26:28;;;;;;;4.78;3.47;;;;;;;;;;5106613;28;20597;-75
2023/07/20 14:28:55;;;;;;;5.63;3.70;;;;;;;;;;5091563;28;20200;-75
2023/07/20 14:31:22;;;;;;;4.57;4.05;;;;;;;;;;5092134;28;20204;-75
2023/07/20 14:33:49;;;;;;;5.32;3.72;;;;;;;;;;5111603;28;20199;-75
2023/07/20 14:36:18;;;;;;;4.95;4.25;;;;;;;;;;5096846;28;20225;-76
2023/07/20 14:38:46;;;;;;;5.57;4.47;;;;;;;;;;5115685;28;20219;-76
2023/07/20 14:41:14;;;;;;;7.18;4.95;;;;;;;;;;5116123;28;20199;-75
2023/07/20 14:43:41;;;;;;;4.40;3.97;;;;;;;;;;5080563;28;20261;-75
2023/07/20 14:46:08;;;;;;;5.53;4.13;;;;;;;;;;5097755;28;20195;-76